Last 30 Days

Kelseyville (Clark Drive)

Daily Data | America/Los_Angeles
as of 9/26/20 8:31 AM PDT
Date Daily Max Temp (°F) Max Temp Time Daily Min Temp (°F) Min Temp Time Hrs <= 32F (hrs) Hrs <= 28F (hrs) Hrs 70-85F (hrs) Hrs > 95F (hrs) Powdery Mildew Stress (pts) GDDs (DL) GDDs (Mx/Mn) Seas GDDs (DL) Seasonal GDDs (Mx/Mn) Chilling <=45F (hrs) Chill Hrs 32-45F (hrs) Utah Chilling (Units) Degree Hrs (hrs) Bat Volt Min Day (V)
9/25/20 86.1 1546 44.7 0601 0.0 0.0 8.89 0.00 40 14.2 15.4 3,173 3,130 0.2 0.2 0.0 125.3 12.8
9/24/20 85.2 1536 48.0 0101 0.0 0.0 9.38 0.00 20 15.2 16.6 3,158 3,114 0.0 0.0 1.5 122.6 12.8
9/23/20 87.1 1510 43.5 0645 0.0 0.0 4.68 0.00 0 16.4 15.3 3,143 3,098 1.2 1.2 0.0 163.6 12.8
9/22/20 88.0 1458 43.3 0636 0.0 0.0 4.06 0.00 10 15.2 15.6 3,127 3,082 1.1 1.1 0.5 150.5 12.8
9/21/20 89.5 1558 44.2 0646 0.0 0.0 3.60 0.00 20 16.0 16.8 3,112 3,067 1.0 1.0 0.0 160.1 12.8
9/20/20 89.1 1458 46.5 0717 0.0 0.0 2.84 0.00 30 16.2 17.8 3,096 3,050 0.0 0.0 0.5 167.3 12.8
9/19/20 85.1 1518 45.0 0701 0.0 0.0 8.71 0.00 40 14.5 15.0 3,079 3,032 0.0 0.0 0.0 132.8 12.9
9/18/20 81.2 1404 52.3 0059 0.0 0.0 8.71 0.00 20 14.6 16.7 3,065 3,017 0.0 0.0 0.5 95.4 12.9
9/17/20 90.3 1445 50.6 0655 0.0 0.0 3.85 0.00 0 17.9 20.4 3,050 3,000 0.0 0.0 0.0 174.6 12.8
9/16/20 90.0 1656 41.6 0705 0.0 0.0 3.08 0.00 0 17.1 15.8 3,032 2,980 4.0 4.0 0.0 184.3 12.8
9/15/20 92.8 1533 39.2 0450 0.0 0.0 2.51 0.00 0 16.4 16.0 3,015 2,964 5.8 5.8 0.5 186.3 12.8
9/14/20 91.7 1455 44.2 0724 0.0 0.0 3.09 0.00 0 15.6 18.0 2,999 2,948 1.4 1.4 2.0 179.7 12.8
9/13/20 92.0 1526 44.7 0648 0.0 0.0 2.84 0.00 0 17.1 18.3 2,983 2,930 0.3 0.3 0.5 190.2 12.9
9/12/20 92.1 1648 42.6 0519 0.0 0.0 2.98 0.00 0 16.4 17.4 2,966 2,912 4.1 4.1 0.5 179.4 12.9
9/11/20 86.5 1511 43.2 0709 0.0 0.0 3.04 0.00 0 13.1 14.8 2,950 2,894 2.4 2.4 1.0 125.2 12.9
9/10/20 78.9 1604 47.3 0101 0.0 0.0 5.70 0.00 0 9.8 13.1 2,937 2,880 0.0 0.0 1.5 61.5 12.7
9/9/20 70.5 1356 48.3 0457 0.0 0.0 1.07 0.00 0 9.2 9.4 2,927 2,867 0.0 0.0 0.0 22.6 12.9
9/8/20 88.0 1410 52.1 0004 0.0 0.0 4.62 0.00 0 19.3 20.0 2,918 2,857 0.0 0.0 1.0 163.8 12.7
9/7/20 109.2 1517 58.3 0653 0.0 0.0 4.62 7.46 0 31.2 33.7 2,898 2,837 0.0 0.0 -17.5 412.6 12.7
9/6/20 109.5 1545 59.5 0613 0.0 0.0 4.04 7.12 0 31.5 34.5 2,867 2,803 0.0 0.0 -20.5 418.3 12.8
9/5/20 105.6 1636 49.5 0611 0.0 0.0 3.44 6.00 0 26.1 27.5 2,836 2,769 0.0 0.0 -14.0 350.9 12.8
9/4/20 99.3 1516 50.2 0558 0.0 0.0 2.04 4.76 0 23.2 24.8 2,810 2,741 0.0 0.0 0.0 294.3 12.8
9/3/20 97.9 1515 51.3 0638 0.0 0.0 2.58 3.10 0 22.9 24.6 2,786 2,717 0.0 0.0 0.0 273.1 12.8
9/2/20 96.6 1422 50.9 0641 0.0 0.0 3.20 0.28 0 20.6 23.7 2,763 2,692 0.0 0.0 -14.0 218.6 12.8
9/1/20 93.9 1508 53.8 0546 0.0 0.0 3.48 0.00 0 20.9 23.8 2,743 2,668 0.0 0.0 0.0 211.5 12.8
8/31/20 93.6 1516 55.1 0701 0.0 0.0 3.10 0.00 0 22.9 24.3 2,722 2,644 0.0 0.0 -16.5 242.1 12.8
8/30/20 97.6 1608 53.8 0650 0.0 0.0 3.12 2.13 0 23.6 25.7 2,699 2,620 0.0 0.0 -16.0 262.6 12.8
8/29/20 94.3 1449 55.1 0615 0.0 0.0 3.11 0.00 0 22.9 24.7 2,675 2,594 0.0 0.0 -16.0 239.0 12.8
8/28/20 98.3 1428 54.1 0631 0.0 0.0 3.37 2.31 0 23.8 26.2 2,653 2,570 0.0 0.0 -16.0 271.3 12.8
8/27/20 97.0 1621 49.8 0642 0.0 0.0 3.00 1.44 0 22.2 23.4 2,629 2,543 0.0 0.0 -13.0 266.9 12.8
Max 109.5 - 59.5 - 0.0 0.0 9.38 7.46 40 31.5 34.5 - - 5.8 5.8 2.0 418.3 12.9
Avg - - - - 0.0 0.0 4.09 1.15 - 18.9 20.3 - - 0.7 0.7 -4.4 - -
Min 70.5 - 39.2 - 0.0 0.0 1.07 0.00 0 9.2 9.4 - - 0.0 0.0 -20.5 22.6 12.7
Total - - - - 0.0 0.0 122.73 34.59 - 566.0 609.6 - - 21.4 21.4 -133.5 - -